sensor_id;sensor_type;location;lat;lon;timestamp;P1;durP1;ratioP1;P2;durP2;ratioP2
10801;SDS011;5453;50.852;7.102;2024-03-23T00:53:00;10.73;;;3.28;;
10801;SDS011;5453;50.852;7.102;2024-03-23T00:55:31;11.13;;;3.25;;
10801;SDS011;5453;50.852;7.102;2024-03-23T00:58:02;14.60;;;3.72;;
10801;SDS011;5453;50.852;7.102;2024-03-23T01:00:33;7.22;;;2.65;;
10801;SDS011;5453;50.852;7.102;2024-03-23T01:03:04;11.07;;;2.83;;
10801;SDS011;5453;50.852;7.102;2024-03-23T01:05:35;10.85;;;3.63;;
10801;SDS011;5453;50.852;7.102;2024-03-23T01:08:06;8.35;;;3.58;;
10801;SDS011;5453;50.852;7.102;2024-03-23T01:10:37;11.80;;;3.10;;
10801;SDS011;5453;50.852;7.102;2024-03-23T01:13:07;11.93;;;3.70;;
10801;SDS011;5453;50.852;7.102;2024-03-23T01:15:39;12.45;;;3.35;;
10801;SDS011;5453;50.852;7.102;2024-03-23T01:18:09;8.75;;;3.33;;
10801;SDS011;5453;50.852;7.102;2024-03-23T01:20:40;7.35;;;2.58;;
10801;SDS011;5453;50.852;7.102;2024-03-23T01:23:11;9.93;;;3.45;;
10801;SDS011;5453;50.852;7.102;2024-03-23T01:25:42;7.68;;;2.80;;
10801;SDS011;5453;50.852;7.102;2024-03-23T01:28:13;8.82;;;3.00;;
10801;SDS011;5453;50.852;7.102;2024-03-23T01:30:44;7.70;;;2.60;;
10801;SDS011;5453;50.852;7.102;2024-03-23T01:33:14;6.55;;;2.67;;
10801;SDS011;5453;50.852;7.102;2024-03-23T01:35:45;8.18;;;2.92;;
10801;SDS011;5453;50.852;7.102;2024-03-23T01:38:16;6.18;;;2.30;;
10801;SDS011;5453;50.852;7.102;2024-03-23T01:40:47;10.73;;;3.08;;
10801;SDS011;5453;50.852;7.102;2024-03-23T01:43:18;7.72;;;2.65;;
10801;SDS011;5453;50.852;7.102;2024-03-23T01:45:48;9.65;;;2.70;;
10801;SDS011;5453;50.852;7.102;2024-03-23T01:48:20;6.50;;;2.35;;
10801;SDS011;5453;50.852;7.102;2024-03-23T01:50:51;11.75;;;4.05;;
10801;SDS011;5453;50.852;7.102;2024-03-23T01:53:23;8.85;;;2.83;;
10801;SDS011;5453;50.852;7.102;2024-03-23T01:55:56;8.07;;;2.58;;
10801;SDS011;5453;50.852;7.102;2024-03-23T01:58:27;7.57;;;2.63;;
10801;SDS011;5453;50.852;7.102;2024-03-23T02:00:58;9.80;;;2.58;;
10801;SDS011;5453;50.852;7.102;2024-03-23T02:03:28;4.80;;;1.70;;
10801;SDS011;5453;50.852;7.102;2024-03-23T02:05:59;4.32;;;1.30;;
10801;SDS011;5453;50.852;7.102;2024-03-23T02:08:30;3.47;;;1.50;;
10801;SDS011;5453;50.852;7.102;2024-03-23T02:11:01;3.38;;;1.17;;
10801;SDS011;5453;50.852;7.102;2024-03-23T02:13:32;2.22;;;1.00;;
10801;SDS011;5453;50.852;7.102;2024-03-23T02:16:04;3.72;;;1.17;;
10801;SDS011;5453;50.852;7.102;2024-03-23T02:18:36;5.10;;;1.40;;
10801;SDS011;5453;50.852;7.102;2024-03-23T02:21:07;4.95;;;1.48;;
10801;SDS011;5453;50.852;7.102;2024-03-23T02:23:38;4.30;;;1.58;;
10801;SDS011;5453;50.852;7.102;2024-03-23T02:26:09;3.10;;;1.48;;
10801;SDS011;5453;50.852;7.102;2024-03-23T02:28:39;2.28;;;1.20;;
10801;SDS011;5453;50.852;7.102;2024-03-23T02:31:10;4.57;;;1.42;;
10801;SDS011;5453;50.852;7.102;2024-03-23T02:33:41;3.10;;;1.17;;
10801;SDS011;5453;50.852;7.102;2024-03-23T02:36:12;2.45;;;0.93;;
10801;SDS011;5453;50.852;7.102;2024-03-23T02:38:43;3.20;;;1.30;;
10801;SDS011;5453;50.852;7.102;2024-03-23T02:41:13;3.05;;;1.02;;
10801;SDS011;5453;50.852;7.102;2024-03-23T02:43:44;1.52;;;1.05;;
10801;SDS011;5453;50.852;7.102;2024-03-23T02:46:15;3.67;;;1.50;;
10801;SDS011;5453;50.852;7.102;2024-03-23T02:48:48;5.22;;;1.20;;
10801;SDS011;5453;50.852;7.102;2024-03-23T02:51:19;3.53;;;0.82;;
10801;SDS011;5453;50.852;7.102;2024-03-23T02:53:50;2.45;;;1.17;;
10801;SDS011;5453;50.852;7.102;2024-03-23T02:56:21;2.28;;;1.13;;
10801;SDS011;5453;50.852;7.102;2024-03-23T02:58:52;6.07;;;1.10;;
10801;SDS011;5453;50.852;7.102;2024-03-23T03:01:22;4.55;;;0.95;;
10801;SDS011;5453;50.852;7.102;2024-03-23T03:03:53;5.22;;;1.35;;
10801;SDS011;5453;50.852;7.102;2024-03-23T03:06:24;5.10;;;1.08;;
10801;SDS011;5453;50.852;7.102;2024-03-23T03:08:56;3.10;;;1.23;;
10801;SDS011;5453;50.852;7.102;2024-03-23T03:11:26;3.67;;;1.60;;
10801;SDS011;5453;50.852;7.102;2024-03-23T03:13:57;4.68;;;1.42;;
10801;SDS011;5453;50.852;7.102;2024-03-23T03:16:30;5.40;;;1.40;;
10801;SDS011;5453;50.852;7.102;2024-03-23T03:19:01;4.35;;;1.42;;
10801;SDS011;5453;50.852;7.102;2024-03-23T03:21:32;5.70;;;1.48;;
10801;SDS011;5453;50.852;7.102;2024-03-23T03:24:03;5.15;;;1.45;;
10801;SDS011;5453;50.852;7.102;2024-03-23T03:26:36;3.22;;;1.33;;
10801;SDS011;5453;50.852;7.102;2024-03-23T03:29:07;3.55;;;1.48;;
10801;SDS011;5453;50.852;7.102;2024-03-23T03:31:42;3.97;;;1.02;;
10801;SDS011;5453;50.852;7.102;2024-03-23T03:34:13;3.05;;;1.15;;
10801;SDS011;5453;50.852;7.102;2024-03-23T03:36:44;4.38;;;1.15;;
10801;SDS011;5453;50.852;7.102;2024-03-23T03:39:15;2.90;;;1.40;;
10801;SDS011;5453;50.852;7.102;2024-03-23T03:41:46;2.22;;;1.17;;
10801;SDS011;5453;50.852;7.102;2024-03-23T03:44:17;2.58;;;1.15;;
10801;SDS011;5453;50.852;7.102;2024-03-23T03:46:48;1.40;;;0.90;;
10801;SDS011;5453;50.852;7.102;2024-03-23T03:49:19;5.72;;;1.08;;
10801;SDS011;5453;50.852;7.102;2024-03-23T03:51:49;5.00;;;1.42;;
10801;SDS011;5453;50.852;7.102;2024-03-23T03:54:20;4.82;;;1.20;;
10801;SDS011;5453;50.852;7.102;2024-03-23T03:56:51;1.35;;;0.90;;
10801;SDS011;5453;50.852;7.102;2024-03-23T03:59:22;1.60;;;0.77;;
10801;SDS011;5453;50.852;7.102;2024-03-23T04:01:53;3.38;;;1.50;;
10801;SDS011;5453;50.852;7.102;2024-03-23T04:04:24;4.57;;;1.20;;
10801;SDS011;5453;50.852;7.102;2024-03-23T04:07:00;4.18;;;0.90;;
10801;SDS011;5453;50.852;7.102;2024-03-23T04:09:32;2.33;;;1.00;;
10801;SDS011;5453;50.852;7.102;2024-03-23T04:12:03;3.60;;;0.85;;
10801;SDS011;5453;50.852;7.102;2024-03-23T04:14:34;2.75;;;1.02;;
10801;SDS011;5453;50.852;7.102;2024-03-23T04:17:05;5.30;;;1.10;;
10801;SDS011;5453;50.852;7.102;2024-03-23T04:19:36;7.28;;;1.27;;
10801;SDS011;5453;50.852;7.102;2024-03-23T04:22:07;4.78;;;1.10;;
10801;SDS011;5453;50.852;7.102;2024-03-23T04:24:38;3.50;;;0.80;;
10801;SDS011;5453;50.852;7.102;2024-03-23T04:27:09;1.63;;;0.77;;
10801;SDS011;5453;50.852;7.102;2024-03-23T04:29:40;1.77;;;1.10;;
10801;SDS011;5453;50.852;7.102;2024-03-23T04:32:10;1.67;;;1.00;;
10801;SDS011;5453;50.852;7.102;2024-03-23T04:34:41;1.20;;;1.10;;
10801;SDS011;5453;50.852;7.102;2024-03-23T04:37:13;6.40;;;0.90;;
10801;SDS011;5453;50.852;7.102;2024-03-23T04:39:44;3.80;;;1.15;;
10801;SDS011;5453;50.852;7.102;2024-03-23T04:42:15;2.30;;;0.77;;
10801;SDS011;5453;50.852;7.102;2024-03-23T04:44:46;3.92;;;1.00;;
10801;SDS011;5453;50.852;7.102;2024-03-23T04:47:17;2.03;;;0.98;;
10801;SDS011;5453;50.852;7.102;2024-03-23T04:49:48;2.80;;;0.88;;
10801;SDS011;5453;50.852;7.102;2024-03-23T04:52:19;2.70;;;0.85;;
10801;SDS011;5453;50.852;7.102;2024-03-23T04:54:50;3.50;;;1.20;;
10801;SDS011;5453;50.852;7.102;2024-03-23T04:57:21;4.82;;;0.90;;
10801;SDS011;5453;50.852;7.102;2024-03-23T04:59:52;4.70;;;0.98;;
10801;SDS011;5453;50.852;7.102;2024-03-23T05:02:23;3.05;;;0.82;;
10801;SDS011;5453;50.852;7.102;2024-03-23T05:04:55;5.15;;;1.08;;
10801;SDS011;5453;50.852;7.102;2024-03-23T05:07:26;6.53;;;1.00;;
10801;SDS011;5453;50.852;7.102;2024-03-23T05:09:57;5.68;;;1.15;;
10801;SDS011;5453;50.852;7.102;2024-03-23T05:12:28;6.20;;;1.35;;
10801;SDS011;5453;50.852;7.102;2024-03-23T05:14:58;1.27;;;0.85;;
10801;SDS011;5453;50.852;7.102;2024-03-23T05:17:29;4.00;;;1.00;;
10801;SDS011;5453;50.852;7.102;2024-03-23T05:20:01;4.32;;;0.98;;
10801;SDS011;5453;50.852;7.102;2024-03-23T05:22:33;4.25;;;0.80;;
10801;SDS011;5453;50.852;7.102;2024-03-23T05:25:04;4.47;;;1.10;;
10801;SDS011;5453;50.852;7.102;2024-03-23T05:27:35;4.30;;;1.10;;
10801;SDS011;5453;50.852;7.102;2024-03-23T05:30:06;2.15;;;0.63;;
10801;SDS011;5453;50.852;7.102;2024-03-23T05:32:39;5.07;;;1.10;;
10801;SDS011;5453;50.852;7.102;2024-03-23T05:35:13;6.05;;;1.60;;
10801;SDS011;5453;50.852;7.102;2024-03-23T05:37:43;3.25;;;0.95;;
10801;SDS011;5453;50.852;7.102;2024-03-23T05:40:14;7.22;;;1.00;;
10801;SDS011;5453;50.852;7.102;2024-03-23T05:42:45;6.53;;;1.63;;
10801;SDS011;5453;50.852;7.102;2024-03-23T05:45:16;7.18;;;1.00;;
10801;SDS011;5453;50.852;7.102;2024-03-23T05:47:48;4.93;;;1.10;;
10801;SDS011;5453;50.852;7.102;2024-03-23T05:50:19;4.20;;;1.20;;
10801;SDS011;5453;50.852;7.102;2024-03-23T05:52:50;10.25;;;1.17;;
10801;SDS011;5453;50.852;7.102;2024-03-23T05:55:21;6.45;;;1.00;;
10801;SDS011;5453;50.852;7.102;2024-03-23T05:57:52;3.47;;;0.82;;
10801;SDS011;5453;50.852;7.102;2024-03-23T06:00:22;3.80;;;0.80;;
10801;SDS011;5453;50.852;7.102;2024-03-23T06:02:56;2.30;;;0.80;;
10801;SDS011;5453;50.852;7.102;2024-03-23T06:05:27;3.50;;;1.13;;
10801;SDS011;5453;50.852;7.102;2024-03-23T06:07:58;3.03;;;0.82;;
10801;SDS011;5453;50.852;7.102;2024-03-23T06:10:29;2.30;;;0.82;;
10801;SDS011;5453;50.852;7.102;2024-03-23T06:13:00;5.90;;;0.95;;
10801;SDS011;5453;50.852;7.102;2024-03-23T06:15:31;1.52;;;0.80;;
10801;SDS011;5453;50.852;7.102;2024-03-23T06:18:01;2.58;;;0.70;;
10801;SDS011;5453;50.852;7.102;2024-03-23T06:20:34;4.13;;;0.80;;
10801;SDS011;5453;50.852;7.102;2024-03-23T06:23:07;4.03;;;1.23;;
10801;SDS011;5453;50.852;7.102;2024-03-23T06:25:38;1.88;;;0.75;;
10801;SDS011;5453;50.852;7.102;2024-03-23T06:28:10;1.85;;;0.73;;
10801;SDS011;5453;50.852;7.102;2024-03-23T06:30:41;6.03;;;1.00;;
10801;SDS011;5453;50.852;7.102;2024-03-23T06:33:12;6.32;;;1.27;;
10801;SDS011;5453;50.852;7.102;2024-03-23T06:35:42;1.90;;;0.65;;
10801;SDS011;5453;50.852;7.102;2024-03-23T06:38:20;4.57;;;0.90;;
10801;SDS011;5453;50.852;7.102;2024-03-23T06:40:51;0.95;;;0.57;;
10801;SDS011;5453;50.852;7.102;2024-03-23T06:43:22;1.65;;;0.80;;
10801;SDS011;5453;50.852;7.102;2024-03-23T06:45:54;5.35;;;0.90;;
10801;SDS011;5453;50.852;7.102;2024-03-23T06:48:25;3.30;;;1.00;;
10801;SDS011;5453;50.852;7.102;2024-03-23T06:50:56;5.05;;;0.85;;
10801;SDS011;5453;50.852;7.102;2024-03-23T06:53:27;3.72;;;0.80;;
10801;SDS011;5453;50.852;7.102;2024-03-23T06:55:58;2.70;;;0.82;;
10801;SDS011;5453;50.852;7.102;2024-03-23T06:58:31;3.42;;;0.80;;
10801;SDS011;5453;50.852;7.102;2024-03-23T07:01:01;4.45;;;0.90;;
10801;SDS011;5453;50.852;7.102;2024-03-23T07:03:32;2.35;;;0.98;;
10801;SDS011;5453;50.852;7.102;2024-03-23T07:06:03;1.52;;;0.68;;
10801;SDS011;5453;50.852;7.102;2024-03-23T07:08:34;2.42;;;0.88;;
10801;SDS011;5453;50.852;7.102;2024-03-23T07:11:05;4.50;;;0.73;;
10801;SDS011;5453;50.852;7.102;2024-03-23T07:13:36;5.68;;;0.85;;
10801;SDS011;5453;50.852;7.102;2024-03-23T07:16:07;3.53;;;0.90;;
10801;SDS011;5453;50.852;7.102;2024-03-23T07:18:37;2.95;;;1.17;;
10801;SDS011;5453;50.852;7.102;2024-03-23T07:21:08;2.38;;;1.00;;
10801;SDS011;5453;50.852;7.102;2024-03-23T07:23:41;2.67;;;0.90;;
10801;SDS011;5453;50.852;7.102;2024-03-23T07:26:15;6.63;;;1.48;;
10801;SDS011;5453;50.852;7.102;2024-03-23T07:28:45;2.25;;;1.40;;
10801;SDS011;5453;50.852;7.102;2024-03-23T07:31:16;4.75;;;1.52;;
10801;SDS011;5453;50.852;7.102;2024-03-23T07:33:47;2.80;;;1.20;;
10801;SDS011;5453;50.852;7.102;2024-03-23T07:36:19;3.38;;;1.17;;
10801;SDS011;5453;50.852;7.102;2024-03-23T07:38:49;2.55;;;1.20;;
10801;SDS011;5453;50.852;7.102;2024-03-23T07:41:20;7.10;;;1.98;;
10801;SDS011;5453;50.852;7.102;2024-03-23T07:43:51;10.23;;;2.30;;
10801;SDS011;5453;50.852;7.102;2024-03-23T07:46:22;6.03;;;1.75;;
10801;SDS011;5453;50.852;7.102;2024-03-23T07:48:55;3.55;;;1.63;;
10801;SDS011;5453;50.852;7.102;2024-03-23T07:51:26;5.82;;;1.73;;
10801;SDS011;5453;50.852;7.102;2024-03-23T07:53:56;9.55;;;1.90;;
10801;SDS011;5453;50.852;7.102;2024-03-23T07:56:27;6.90;;;1.77;;
10801;SDS011;5453;50.852;7.102;2024-03-23T07:58:58;6.93;;;1.85;;
10801;SDS011;5453;50.852;7.102;2024-03-23T08:01:29;5.15;;;1.70;;
10801;SDS011;5453;50.852;7.102;2024-03-23T08:04:00;6.93;;;2.08;;
10801;SDS011;5453;50.852;7.102;2024-03-23T08:06:31;4.95;;;1.85;;
10801;SDS011;5453;50.852;7.102;2024-03-23T08:09:02;8.55;;;2.50;;
10801;SDS011;5453;50.852;7.102;2024-03-23T08:11:33;6.38;;;2.75;;
10801;SDS011;5453;50.852;7.102;2024-03-23T08:14:08;5.70;;;2.15;;
10801;SDS011;5453;50.852;7.102;2024-03-23T08:16:40;3.85;;;1.90;;
10801;SDS011;5453;50.852;7.102;2024-03-23T08:19:11;5.22;;;1.88;;
10801;SDS011;5453;50.852;7.102;2024-03-23T08:21:42;5.43;;;1.80;;
10801;SDS011;5453;50.852;7.102;2024-03-23T08:24:13;3.70;;;1.45;;
10801;SDS011;5453;50.852;7.102;2024-03-23T08:26:43;4.13;;;1.40;;
10801;SDS011;5453;50.852;7.102;2024-03-23T08:29:14;2.55;;;1.05;;
10801;SDS011;5453;50.852;7.102;2024-03-23T08:31:45;4.55;;;1.02;;
10801;SDS011;5453;50.852;7.102;2024-03-23T08:34:16;1.05;;;0.68;;
10801;SDS011;5453;50.852;7.102;2024-03-23T08:36:47;1.63;;;0.68;;
10801;SDS011;5453;50.852;7.102;2024-03-23T08:39:17;1.55;;;0.82;;
10801;SDS011;5453;50.852;7.102;2024-03-23T08:41:50;2.88;;;1.20;;
10801;SDS011;5453;50.852;7.102;2024-03-23T08:44:21;4.50;;;1.30;;
10801;SDS011;5453;50.852;7.102;2024-03-23T08:46:52;2.50;;;1.45;;
10801;SDS011;5453;50.852;7.102;2024-03-23T08:49:26;2.88;;;1.20;;
10801;SDS011;5453;50.852;7.102;2024-03-23T08:51:56;4.60;;;1.10;;
10801;SDS011;5453;50.852;7.102;2024-03-23T08:54:27;2.13;;;1.52;;
10801;SDS011;5453;50.852;7.102;2024-03-23T08:56:59;2.63;;;1.40;;
10801;SDS011;5453;50.852;7.102;2024-03-23T08:59:30;5.13;;;1.60;;
10801;SDS011;5453;50.852;7.102;2024-03-23T09:02:01;2.55;;;1.48;;
10801;SDS011;5453;50.852;7.102;2024-03-23T09:04:31;3.10;;;1.50;;
10801;SDS011;5453;50.852;7.102;2024-03-23T09:07:02;5.10;;;1.75;;
10801;SDS011;5453;50.852;7.102;2024-03-23T09:09:33;5.35;;;1.70;;
10801;SDS011;5453;50.852;7.102;2024-03-23T09:12:04;3.28;;;1.65;;
10801;SDS011;5453;50.852;7.102;2024-03-23T09:14:35;5.43;;;1.92;;
10801;SDS011;5453;50.852;7.102;2024-03-23T09:17:06;5.40;;;2.00;;
10801;SDS011;5453;50.852;7.102;2024-03-23T09:19:38;7.55;;;2.10;;
10801;SDS011;5453;50.852;7.102;2024-03-23T09:22:09;5.15;;;2.47;;
10801;SDS011;5453;50.852;7.102;2024-03-23T09:24:40;3.97;;;1.90;;
10801;SDS011;5453;50.852;7.102;2024-03-23T09:27:11;9.32;;;2.22;;
10801;SDS011;5453;50.852;7.102;2024-03-23T09:29:42;9.80;;;1.98;;
10801;SDS011;5453;50.852;7.102;2024-03-23T09:32:13;5.65;;;2.08;;
10801;SDS011;5453;50.852;7.102;2024-03-23T09:34:44;6.18;;;2.40;;
10801;SDS011;5453;50.852;7.102;2024-03-23T09:37:14;3.97;;;1.52;;
10801;SDS011;5453;50.852;7.102;2024-03-23T09:39:45;4.63;;;1.60;;
10801;SDS011;5453;50.852;7.102;2024-03-23T09:42:16;5.93;;;1.67;;
10801;SDS011;5453;50.852;7.102;2024-03-23T09:44:47;7.97;;;1.30;;
10801;SDS011;5453;50.852;7.102;2024-03-23T09:47:21;3.08;;;1.30;;
10801;SDS011;5453;50.852;7.102;2024-03-23T09:49:52;5.35;;;1.02;;
10801;SDS011;5453;50.852;7.102;2024-03-23T09:52:23;4.68;;;1.30;;
10801;SDS011;5453;50.852;7.102;2024-03-23T09:54:53;6.47;;;1.55;;
10801;SDS011;5453;50.852;7.102;2024-03-23T09:57:24;4.72;;;1.20;;
10801;SDS011;5453;50.852;7.102;2024-03-23T09:59:56;3.80;;;1.15;;
10801;SDS011;5453;50.852;7.102;2024-03-23T10:02:28;1.42;;;0.80;;
10801;SDS011;5453;50.852;7.102;2024-03-23T10:04:59;4.30;;;1.35;;
10801;SDS011;5453;50.852;7.102;2024-03-23T10:07:30;3.70;;;1.02;;
10801;SDS011;5453;50.852;7.102;2024-03-23T10:10:08;5.53;;;1.00;;
10801;SDS011;5453;50.852;7.102;2024-03-23T10:12:48;2.55;;;0.95;;
10801;SDS011;5453;50.852;7.102;2024-03-23T10:15:25;6.47;;;1.50;;
10801;SDS011;5453;50.852;7.102;2024-03-23T10:17:56;5.63;;;1.00;;
10801;SDS011;5453;50.852;7.102;2024-03-23T10:20:27;6.18;;;0.90;;
10801;SDS011;5453;50.852;7.102;2024-03-23T10:22:58;1.92;;;1.02;;
10801;SDS011;5453;50.852;7.102;2024-03-23T10:25:28;0.95;;;0.65;;
10801;SDS011;5453;50.852;7.102;2024-03-23T10:27:59;1.48;;;0.60;;
10801;SDS011;5453;50.852;7.102;2024-03-23T10:30:31;1.92;;;0.93;;
10801;SDS011;5453;50.852;7.102;2024-03-23T10:33:11;3.92;;;0.98;;
10801;SDS011;5453;50.852;7.102;2024-03-23T10:35:43;3.17;;;1.25;;
10801;SDS011;5453;50.852;7.102;2024-03-23T10:38:14;4.45;;;0.90;;
10801;SDS011;5453;50.852;7.102;2024-03-23T10:40:45;4.90;;;1.30;;
10801;SDS011;5453;50.852;7.102;2024-03-23T10:43:16;2.55;;;0.98;;
10801;SDS011;5453;50.852;7.102;2024-03-23T10:45:48;2.38;;;0.90;;
10801;SDS011;5453;50.852;7.102;2024-03-23T10:48:20;3.47;;;1.02;;
10801;SDS011;5453;50.852;7.102;2024-03-23T10:50:50;6.18;;;1.40;;
10801;SDS011;5453;50.852;7.102;2024-03-23T10:53:22;4.05;;;1.00;;
10801;SDS011;5453;50.852;7.102;2024-03-23T10:55:57;2.72;;;0.60;;
10801;SDS011;5453;50.852;7.102;2024-03-23T10:58:31;2.35;;;0.93;;
10801;SDS011;5453;50.852;7.102;2024-03-23T11:01:11;2.95;;;0.70;;
10801;SDS011;5453;50.852;7.102;2024-03-23T11:03:46;1.20;;;0.68;;
10801;SDS011;5453;50.852;7.102;2024-03-23T11:06:33;2.20;;;0.60;;
10801;SDS011;5453;50.852;7.102;2024-03-23T11:09:49;1.95;;;0.82;;
10801;SDS011;5453;50.852;7.102;2024-03-23T11:17:36;1.73;;;0.43;;
10801;SDS011;5453;50.852;7.102;2024-03-23T11:20:07;1.50;;;0.75;;
10801;SDS011;5453;50.852;7.102;2024-03-23T11:22:45;12.23;;;3.25;;
10801;SDS011;5453;50.852;7.102;2024-03-23T11:27:54;6.50;;;1.20;;
10801;SDS011;5453;50.852;7.102;2024-03-23T11:30:41;14.38;;;3.55;;
10801;SDS011;5453;50.852;7.102;2024-03-23T11:33:12;4.30;;;1.40;;
10801;SDS011;5453;50.852;7.102;2024-03-23T11:35:43;1.52;;;0.90;;
10801;SDS011;5453;50.852;7.102;2024-03-23T11:38:15;3.20;;;1.00;;
10801;SDS011;5453;50.852;7.102;2024-03-23T11:40:50;1.88;;;0.70;;
10801;SDS011;5453;50.852;7.102;2024-03-23T11:43:21;2.92;;;0.55;;
10801;SDS011;5453;50.852;7.102;2024-03-23T11:45:52;2.13;;;1.00;;
10801;SDS011;5453;50.852;7.102;2024-03-23T11:48:25;2.45;;;0.95;;
10801;SDS011;5453;50.852;7.102;2024-03-23T11:50:57;2.67;;;0.90;;
10801;SDS011;5453;50.852;7.102;2024-03-23T11:53:28;1.98;;;1.00;;
10801;SDS011;5453;50.852;7.102;2024-03-23T11:56:00;3.22;;;1.00;;
10801;SDS011;5453;50.852;7.102;2024-03-23T11:58:32;1.85;;;1.20;;
10801;SDS011;5453;50.852;7.102;2024-03-23T12:01:05;1.77;;;0.85;;
10801;SDS011;5453;50.852;7.102;2024-03-23T12:03:43;3.65;;;1.25;;
10801;SDS011;5453;50.852;7.102;2024-03-23T12:06:19;3.45;;;1.00;;
10801;SDS011;5453;50.852;7.102;2024-03-23T12:08:50;2.28;;;0.90;;
10801;SDS011;5453;50.852;7.102;2024-03-23T12:11:21;1.25;;;0.95;;
10801;SDS011;5453;50.852;7.102;2024-03-23T12:13:53;1.38;;;0.60;;
10801;SDS011;5453;50.852;7.102;2024-03-23T12:16:30;2.50;;;0.88;;
10801;SDS011;5453;50.852;7.102;2024-03-23T12:19:04;0.98;;;0.68;;
10801;SDS011;5453;50.852;7.102;2024-03-23T12:24:07;1.85;;;0.60;;
10801;SDS011;5453;50.852;7.102;2024-03-23T12:26:38;6.55;;;0.95;;
10801;SDS011;5453;50.852;7.102;2024-03-23T12:29:10;0.57;;;0.40;;
10801;SDS011;5453;50.852;7.102;2024-03-23T12:31:40;0.75;;;0.70;;
10801;SDS011;5453;50.852;7.102;2024-03-23T12:34:11;2.90;;;0.82;;
10801;SDS011;5453;50.852;7.102;2024-03-23T12:36:42;2.60;;;1.08;;
10801;SDS011;5453;50.852;7.102;2024-03-23T12:39:14;1.02;;;0.80;;
10801;SDS011;5453;50.852;7.102;2024-03-23T12:41:44;0.82;;;0.73;;
10801;SDS011;5453;50.852;7.102;2024-03-23T12:44:16;3.90;;;0.70;;
10801;SDS011;5453;50.852;7.102;2024-03-23T12:46:47;0.73;;;0.40;;
10801;SDS011;5453;50.852;7.102;2024-03-23T12:49:17;1.35;;;0.60;;
10801;SDS011;5453;50.852;7.102;2024-03-23T12:51:55;2.22;;;0.63;;
10801;SDS011;5453;50.852;7.102;2024-03-23T12:54:26;2.60;;;0.55;;
10801;SDS011;5453;50.852;7.102;2024-03-23T12:56:57;0.38;;;0.38;;
10801;SDS011;5453;50.852;7.102;2024-03-23T12:59:28;0.47;;;0.47;;
10801;SDS011;5453;50.852;7.102;2024-03-23T13:01:59;0.55;;;0.55;;
10801;SDS011;5453;50.852;7.102;2024-03-23T13:04:30;2.88;;;0.55;;
10801;SDS011;5453;50.852;7.102;2024-03-23T13:07:01;0.50;;;0.50;;
10801;SDS011;5453;50.852;7.102;2024-03-23T13:09:32;3.03;;;0.40;;
10801;SDS011;5453;50.852;7.102;2024-03-23T13:12:04;0.47;;;0.47;;
10801;SDS011;5453;50.852;7.102;2024-03-23T13:14:35;1.13;;;0.52;;
10801;SDS011;5453;50.852;7.102;2024-03-23T13:17:06;0.40;;;0.40;;
10801;SDS011;5453;50.852;7.102;2024-03-23T13:19:37;0.80;;;0.60;;
10801;SDS011;5453;50.852;7.102;2024-03-23T13:22:08;0.35;;;0.35;;
10801;SDS011;5453;50.852;7.102;2024-03-23T13:24:41;0.50;;;0.50;;
10801;SDS011;5453;50.852;7.102;2024-03-23T13:27:12;0.40;;;0.38;;
10801;SDS011;5453;50.852;7.102;2024-03-23T13:29:43;0.80;;;0.73;;
10801;SDS011;5453;50.852;7.102;2024-03-23T13:32:16;0.85;;;0.52;;
10801;SDS011;5453;50.852;7.102;2024-03-23T13:34:47;1.35;;;0.50;;
10801;SDS011;5453;50.852;7.102;2024-03-23T13:37:20;3.35;;;0.90;;
10801;SDS011;5453;50.852;7.102;2024-03-23T13:39:51;0.35;;;0.35;;
10801;SDS011;5453;50.852;7.102;2024-03-23T13:42:22;2.03;;;0.90;;
10801;SDS011;5453;50.852;7.102;2024-03-23T13:44:55;1.50;;;0.60;;
10801;SDS011;5453;50.852;7.102;2024-03-23T13:47:26;1.50;;;0.70;;
10801;SDS011;5453;50.852;7.102;2024-03-23T13:49:58;0.98;;;0.50;;
10801;SDS011;5453;50.852;7.102;2024-03-23T13:52:29;2.40;;;0.80;;
10801;SDS011;5453;50.852;7.102;2024-03-23T13:55:01;1.00;;;0.90;;
10801;SDS011;5453;50.852;7.102;2024-03-23T13:57:32;1.42;;;1.00;;
10801;SDS011;5453;50.852;7.102;2024-03-23T14:00:03;3.40;;;1.35;;
10801;SDS011;5453;50.852;7.102;2024-03-23T14:02:43;3.40;;;1.13;;
10801;SDS011;5453;50.852;7.102;2024-03-23T14:05:14;3.53;;;1.00;;
10801;SDS011;5453;50.852;7.102;2024-03-23T14:07:45;4.43;;;1.10;;
10801;SDS011;5453;50.852;7.102;2024-03-23T14:10:16;2.72;;;1.08;;
10801;SDS011;5453;50.852;7.102;2024-03-23T14:12:47;1.05;;;0.70;;
10801;SDS011;5453;50.852;7.102;2024-03-23T14:15:17;1.73;;;0.95;;
10801;SDS011;5453;50.852;7.102;2024-03-23T14:17:48;2.47;;;0.77;;
10801;SDS011;5453;50.852;7.102;2024-03-23T14:20:19;1.08;;;0.77;;
10801;SDS011;5453;50.852;7.102;2024-03-23T14:22:52;3.15;;;0.82;;
10801;SDS011;5453;50.852;7.102;2024-03-23T14:25:23;3.90;;;0.73;;
10801;SDS011;5453;50.852;7.102;2024-03-23T14:27:57;1.33;;;0.57;;
10801;SDS011;5453;50.852;7.102;2024-03-23T14:30:28;0.47;;;0.47;;
10801;SDS011;5453;50.852;7.102;2024-03-23T14:32:59;0.50;;;0.50;;
10801;SDS011;5453;50.852;7.102;2024-03-23T14:35:29;1.20;;;0.50;;
10801;SDS011;5453;50.852;7.102;2024-03-23T14:38:01;0.45;;;0.45;;
10801;SDS011;5453;50.852;7.102;2024-03-23T14:40:32;0.88;;;0.63;;
10801;SDS011;5453;50.852;7.102;2024-03-23T14:43:03;1.15;;;0.70;;
10801;SDS011;5453;50.852;7.102;2024-03-23T14:45:34;0.45;;;0.40;;
10801;SDS011;5453;50.852;7.102;2024-03-23T14:48:07;1.42;;;0.65;;
10801;SDS011;5453;50.852;7.102;2024-03-23T14:50:38;2.72;;;0.60;;
10801;SDS011;5453;50.852;7.102;2024-03-23T14:53:09;0.52;;;0.52;;
10801;SDS011;5453;50.852;7.102;2024-03-23T14:58:19;3.10;;;0.93;;
10801;SDS011;5453;50.852;7.102;2024-03-23T15:00:49;2.65;;;1.00;;
10801;SDS011;5453;50.852;7.102;2024-03-23T15:03:21;1.20;;;0.70;;
10801;SDS011;5453;50.852;7.102;2024-03-23T15:05:56;1.25;;;1.13;;
10801;SDS011;5453;50.852;7.102;2024-03-23T15:08:28;3.08;;;1.67;;
10801;SDS011;5453;50.852;7.102;2024-03-23T15:11:00;3.90;;;1.15;;
10801;SDS011;5453;50.852;7.102;2024-03-23T15:13:35;0.80;;;0.70;;
10801;SDS011;5453;50.852;7.102;2024-03-23T15:16:07;1.02;;;0.50;;
10801;SDS011;5453;50.852;7.102;2024-03-23T15:18:38;2.10;;;0.50;;
10801;SDS011;5453;50.852;7.102;2024-03-23T15:21:11;0.43;;;0.43;;
10801;SDS011;5453;50.852;7.102;2024-03-23T15:23:42;2.05;;;0.60;;
10801;SDS011;5453;50.852;7.102;2024-03-23T15:26:13;0.60;;;0.60;;
10801;SDS011;5453;50.852;7.102;2024-03-23T15:28:48;0.65;;;0.60;;
10801;SDS011;5453;50.852;7.102;2024-03-23T15:31:28;1.23;;;0.60;;
10801;SDS011;5453;50.852;7.102;2024-03-23T15:34:00;2.80;;;0.80;;
10801;SDS011;5453;50.852;7.102;2024-03-23T15:36:31;2.03;;;0.70;;
10801;SDS011;5453;50.852;7.102;2024-03-23T15:39:02;0.63;;;0.60;;
10801;SDS011;5453;50.852;7.102;2024-03-23T15:41:33;2.10;;;0.73;;
10801;SDS011;5453;50.852;7.102;2024-03-23T15:44:05;1.83;;;0.80;;
10801;SDS011;5453;50.852;7.102;2024-03-23T15:46:36;1.17;;;0.70;;
10801;SDS011;5453;50.852;7.102;2024-03-23T15:49:07;1.45;;;1.10;;
10801;SDS011;5453;50.852;7.102;2024-03-23T15:51:38;3.30;;;0.82;;
10801;SDS011;5453;50.852;7.102;2024-03-23T15:54:12;0.47;;;0.47;;
10801;SDS011;5453;50.852;7.102;2024-03-23T15:56:42;0.98;;;0.60;;
10801;SDS011;5453;50.852;7.102;2024-03-23T15:59:13;1.67;;;0.57;;
10801;SDS011;5453;50.852;7.102;2024-03-23T16:01:44;1.13;;;0.60;;
10801;SDS011;5453;50.852;7.102;2024-03-23T16:04:15;3.45;;;0.88;;
10801;SDS011;5453;50.852;7.102;2024-03-23T16:06:46;1.52;;;0.90;;
10801;SDS011;5453;50.852;7.102;2024-03-23T16:09:17;2.75;;;0.82;;
10801;SDS011;5453;50.852;7.102;2024-03-23T16:11:48;2.00;;;1.05;;
10801;SDS011;5453;50.852;7.102;2024-03-23T16:14:19;2.80;;;1.15;;
10801;SDS011;5453;50.852;7.102;2024-03-23T16:16:50;3.50;;;1.15;;
10801;SDS011;5453;50.852;7.102;2024-03-23T16:19:21;2.40;;;1.25;;
10801;SDS011;5453;50.852;7.102;2024-03-23T16:21:52;3.60;;;1.60;;
10801;SDS011;5453;50.852;7.102;2024-03-23T16:24:24;2.20;;;1.27;;
10801;SDS011;5453;50.852;7.102;2024-03-23T16:26:55;1.80;;;1.23;;
10801;SDS011;5453;50.852;7.102;2024-03-23T16:29:26;2.97;;;0.98;;
10801;SDS011;5453;50.852;7.102;2024-03-23T16:31:56;1.17;;;1.05;;